createdAt,value
2023-02-27T00:00:17.166Z,4.87
2023-02-27T00:02:47.814Z,4.59
2023-02-27T00:05:15.925Z,4.69
2023-02-27T00:07:44.635Z,4.66
2023-02-27T00:10:14.109Z,4.66
2023-02-27T00:12:41.927Z,4.57
2023-02-27T00:15:11.659Z,4.56
2023-02-27T00:17:39.755Z,4.70
2023-02-27T00:20:10.736Z,4.61
2023-02-27T00:22:38.136Z,4.43
2023-02-27T00:25:08.894Z,4.51
2023-02-27T00:27:36.677Z,4.56
2023-02-27T00:30:04.473Z,4.34
2023-02-27T00:32:31.947Z,4.52
2023-02-27T00:34:59.057Z,4.61
2023-02-27T00:37:26.314Z,4.27
2023-02-27T00:39:53.573Z,4.38
2023-02-27T00:42:22.192Z,4.63
2023-02-27T00:44:49.312Z,4.22
2023-02-27T00:47:16.453Z,4.01
2023-02-27T00:49:43.506Z,4.38
2023-02-27T00:52:11.443Z,4.29
2023-02-27T00:54:38.684Z,4.21
2023-02-27T00:57:05.780Z,4.44
2023-02-27T00:59:34.419Z,4.35
2023-02-27T01:02:01.684Z,4.23
2023-02-27T01:04:28.842Z,4.41
2023-02-27T01:06:56.007Z,4.45
2023-02-27T01:09:23.163Z,4.23
2023-02-27T01:11:50.624Z,4.29
2023-02-27T01:14:18.030Z,4.43
2023-02-27T01:16:46.862Z,4.18
2023-02-27T01:19:13.971Z,4.20
2023-02-27T01:21:41.150Z,4.28
2023-02-27T01:24:08.671Z,4.31
2023-02-27T01:26:35.865Z,4.33
2023-02-27T01:29:04.669Z,4.36
2023-02-27T01:31:33.245Z,4.29
2023-02-27T01:34:01.782Z,4.57
2023-02-27T01:36:28.947Z,4.45
2023-02-27T01:38:56.121Z,4.25
2023-02-27T01:41:23.322Z,4.00
2023-02-27T01:43:57.437Z,4.46
2023-02-27T01:46:25.223Z,4.63
2023-02-27T01:48:56.500Z,4.55
2023-02-27T01:51:28.035Z,4.21
2023-02-27T01:53:57.407Z,4.52
2023-02-27T01:56:27.241Z,4.36
2023-02-27T01:58:59.161Z,4.54
2023-02-27T02:01:27.759Z,4.33
2023-02-27T02:04:03.007Z,4.45
2023-02-27T02:06:36.500Z,4.53
2023-02-27T02:09:05.579Z,4.30
2023-02-27T02:11:32.740Z,4.12
2023-02-27T02:14:01.536Z,4.01
2023-02-27T02:17:01.122Z,4.03
2023-02-27T02:20:03.578Z,4.09
2023-02-27T02:23:13.298Z,4.00
2023-02-27T02:26:18.478Z,4.19
2023-02-27T02:29:18.640Z,4.20
2023-02-27T02:32:28.624Z,4.30
2023-02-27T02:35:27.160Z,4.02
2023-02-27T02:38:30.803Z,4.09
2023-02-27T02:41:11.427Z,4.29
2023-02-27T02:43:48.599Z,4.06
2023-02-27T02:46:27.476Z,4.17
2023-02-27T02:49:04.740Z,3.87
2023-02-27T02:51:39.882Z,3.87
2023-02-27T02:54:14.829Z,3.83
2023-02-27T02:56:51.118Z,3.74
2023-02-27T02:59:32.981Z,3.97
2023-02-27T03:02:06.591Z,4.23
2023-02-27T03:04:41.047Z,4.24
2023-02-27T03:07:17.047Z,4.18
2023-02-27T03:09:50.239Z,4.10
2023-02-27T03:12:23.741Z,4.11
2023-02-27T03:15:02.182Z,4.16
2023-02-27T03:17:43.142Z,4.15
2023-02-27T03:20:19.935Z,3.84
2023-02-27T03:22:54.218Z,3.95
2023-02-27T03:25:25.779Z,4.16
2023-02-27T03:28:00.049Z,4.29
2023-02-27T03:30:35.220Z,3.94
2023-02-27T03:33:12.003Z,3.91
2023-02-27T03:35:49.276Z,4.41
2023-02-27T03:38:25.353Z,3.88
2023-02-27T03:41:11.473Z,4.04
2023-02-27T03:43:51.694Z,4.00
2023-02-27T03:46:23.780Z,4.29
2023-02-27T03:48:51.172Z,4.07
2023-02-27T03:51:22.574Z,4.34
2023-02-27T03:53:57.407Z,4.06
2023-02-27T03:56:32.789Z,4.27
2023-02-27T03:59:01.605Z,4.13
2023-02-27T04:01:30.226Z,4.02
2023-02-27T04:04:05.105Z,4.38
2023-02-27T04:06:34.640Z,4.07
2023-02-27T04:09:07.527Z,4.01
2023-02-27T04:11:48.625Z,4.34
2023-02-27T04:14:33.837Z,4.02
2023-02-27T04:17:21.568Z,4.03
2023-02-27T04:20:26.053Z,4.12
2023-02-27T04:22:59.729Z,3.98
2023-02-27T04:25:47.985Z,4.18
2023-02-27T04:28:19.186Z,4.26
2023-02-27T04:31:01.395Z,4.22
2023-02-27T04:33:40.250Z,4.39
2023-02-27T04:36:16.014Z,4.17
2023-02-27T04:38:50.154Z,4.48
2023-02-27T04:41:23.357Z,4.01
2023-02-27T04:43:53.797Z,4.05
2023-02-27T04:46:28.878Z,3.88
2023-02-27T04:49:02.996Z,4.05
2023-02-27T04:51:37.414Z,4.11
2023-02-27T04:54:11.016Z,4.02
2023-02-27T04:56:45.394Z,3.88
2023-02-27T04:59:19.854Z,3.68
2023-02-27T05:01:56.404Z,4.13
2023-02-27T05:04:28.048Z,4.34
2023-02-27T05:06:57.690Z,4.11
2023-02-27T05:09:33.295Z,4.24
2023-02-27T05:12:04.581Z,4.11
2023-02-27T05:14:38.892Z,4.22
2023-02-27T05:17:13.028Z,3.97
2023-02-27T05:19:42.840Z,4.27
2023-02-27T05:22:25.377Z,4.24
2023-02-27T05:25:02.333Z,4.10
2023-02-27T05:27:37.612Z,4.36
2023-02-27T05:30:15.427Z,4.31
2023-02-27T05:32:53.015Z,4.64
2023-02-27T05:35:29.022Z,4.31
2023-02-27T05:38:06.578Z,4.38
2023-02-27T05:40:38.323Z,4.47
2023-02-27T05:43:11.027Z,4.52
2023-02-27T05:45:42.581Z,4.64
2023-02-27T05:48:19.678Z,4.65
2023-02-27T05:50:52.167Z,4.39
2023-02-27T05:53:22.354Z,4.50
2023-02-27T05:55:53.868Z,4.37
2023-02-27T05:58:27.617Z,4.69
2023-02-27T06:00:59.434Z,4.85
2023-02-27T06:03:30.539Z,4.65
2023-02-27T06:06:00.450Z,4.49
2023-02-27T06:08:28.870Z,4.42
2023-02-27T06:10:56.080Z,4.70
2023-02-27T06:13:24.015Z,5.12
2023-02-27T06:15:51.164Z,4.52
2023-02-27T06:18:19.530Z,4.40
2023-02-27T06:20:49.152Z,4.57
2023-02-27T06:23:16.710Z,4.45
2023-02-27T06:25:44.413Z,5.06
2023-02-27T06:28:12.355Z,4.68
2023-02-27T06:30:39.561Z,4.54
2023-02-27T06:33:08.228Z,4.60
2023-02-27T06:35:35.613Z,4.83
2023-02-27T06:38:04.346Z,4.93
2023-02-27T06:40:31.406Z,4.62
2023-02-27T06:42:58.608Z,4.57
2023-02-27T06:45:25.802Z,4.54
2023-02-27T06:47:53.026Z,4.58
2023-02-27T06:50:20.236Z,4.51
2023-02-27T06:52:47.403Z,4.79
2023-02-27T06:55:15.968Z,4.80
2023-02-27T06:57:43.190Z,4.89
2023-02-27T07:00:12.206Z,4.90
2023-02-27T07:02:40.011Z,5.23
2023-02-27T07:05:08.628Z,5.00
2023-02-27T07:07:37.774Z,5.01
2023-02-27T07:10:06.911Z,4.78
2023-02-27T07:12:35.624Z,4.65
2023-02-27T07:15:04.044Z,4.88
2023-02-27T07:17:31.186Z,4.79
2023-02-27T07:19:58.465Z,4.46
2023-02-27T07:22:25.684Z,4.71
2023-02-27T07:24:52.864Z,4.63
2023-02-27T07:27:20.102Z,4.44
2023-02-27T07:29:48.763Z,4.21
2023-02-27T07:32:15.969Z,4.58
2023-02-27T07:34:43.217Z,4.53
2023-02-27T07:37:10.375Z,4.53
2023-02-27T07:39:37.529Z,4.25
2023-02-27T07:42:04.865Z,4.30
2023-02-27T07:44:33.142Z,4.20
2023-02-27T07:47:01.780Z,4.29
2023-02-27T07:49:28.948Z,4.01
2023-02-27T07:51:56.194Z,4.47
2023-02-27T07:54:23.350Z,4.28
2023-02-27T07:56:50.474Z,4.13
2023-02-27T07:59:17.704Z,4.19
2023-02-27T08:01:44.897Z,4.01
2023-02-27T08:04:13.693Z,4.77
2023-02-27T08:06:41.682Z,5.63
2023-02-27T08:09:08.909Z,4.85
2023-02-27T08:11:36.114Z,4.61
2023-02-27T08:14:03.500Z,4.55
2023-02-27T08:16:31.945Z,4.02
2023-02-27T08:19:00.040Z,4.22
2023-02-27T08:21:29.747Z,4.26
2023-02-27T08:23:57.277Z,4.21
2023-02-27T08:26:24.792Z,4.77
2023-02-27T08:28:52.514Z,4.38
2023-02-27T08:31:19.774Z,4.07
2023-02-27T08:33:48.315Z,4.17
2023-02-27T08:36:16.232Z,4.12
2023-02-27T08:38:44.816Z,4.12
2023-02-27T08:41:11.913Z,4.33
2023-02-27T08:43:39.110Z,3.84
2023-02-27T08:46:06.501Z,4.00
2023-02-27T08:48:33.931Z,3.76
2023-02-27T08:51:01.292Z,3.70
2023-02-27T08:53:28.379Z,3.83
2023-02-27T08:55:57.028Z,4.06
2023-02-27T08:58:24.151Z,4.04
2023-02-27T09:00:51.239Z,4.22
2023-02-27T09:03:18.649Z,4.55
2023-02-27T09:05:45.828Z,4.25
2023-02-27T09:08:13.031Z,4.17
2023-02-27T09:10:40.274Z,4.31
2023-02-27T09:13:08.912Z,4.24
2023-02-27T09:15:36.091Z,4.62
2023-02-27T09:18:03.517Z,4.61
2023-02-27T09:20:31.545Z,4.66
2023-02-27T09:22:58.847Z,4.78
2023-02-27T09:25:26.540Z,4.56
2023-02-27T09:27:53.725Z,4.50
2023-02-27T09:30:22.914Z,4.45
2023-02-27T09:32:51.112Z,4.54
2023-02-27T09:35:19.096Z,4.77
2023-02-27T09:37:47.118Z,5.15
2023-02-27T09:40:22.670Z,4.73
2023-02-27T09:42:53.959Z,4.59
2023-02-27T09:45:25.811Z,4.61
2023-02-27T09:47:58.334Z,4.90
2023-02-27T09:50:38.707Z,4.72
2023-02-27T09:53:12.400Z,4.64
2023-02-27T09:55:41.876Z,4.37
2023-02-27T09:58:29.647Z,4.92
2023-02-27T10:01:06.354Z,4.49
2023-02-27T10:04:10.963Z,4.36
2023-02-27T10:06:45.444Z,4.57
2023-02-27T10:09:28.533Z,4.39
2023-02-27T10:12:12.774Z,4.64
2023-02-27T10:14:45.631Z,4.43
2023-02-27T10:17:22.873Z,4.72
2023-02-27T10:19:54.384Z,4.50
2023-02-27T10:22:27.028Z,4.86
2023-02-27T10:25:02.034Z,4.65
2023-02-27T10:27:31.975Z,4.60
2023-02-27T10:30:23.533Z,4.65
2023-02-27T10:33:07.297Z,4.44
2023-02-27T10:35:38.347Z,4.99
2023-02-27T10:38:13.510Z,5.02
2023-02-27T10:40:43.004Z,5.27
2023-02-27T10:43:16.324Z,5.14
2023-02-27T10:45:43.497Z,5.03
2023-02-27T10:48:14.094Z,5.01
2023-02-27T10:50:44.250Z,5.33
2023-02-27T10:53:22.414Z,5.31
2023-02-27T10:56:01.569Z,5.34
2023-02-27T10:58:34.350Z,5.36
2023-02-27T11:01:05.109Z,5.10
2023-02-27T11:03:39.300Z,5.38
2023-02-27T11:06:13.978Z,5.22
2023-02-27T11:08:41.137Z,5.19
2023-02-27T11:11:10.895Z,5.26
2023-02-27T11:13:42.790Z,5.32
2023-02-27T11:16:14.673Z,5.25
2023-02-27T11:18:45.954Z,5.07
2023-02-27T11:21:25.337Z,4.98
2023-02-27T11:23:57.405Z,4.98
2023-02-27T11:26:31.180Z,4.55
2023-02-27T11:29:14.273Z,4.72
2023-02-27T11:31:54.247Z,5.19
2023-02-27T11:34:28.883Z,5.18
2023-02-27T11:37:01.364Z,5.05
2023-02-27T11:39:37.601Z,5.07
2023-02-27T11:42:23.959Z,5.37
2023-02-27T11:45:00.101Z,5.51
2023-02-27T11:47:33.668Z,5.46
2023-02-27T11:50:39.225Z,5.32
2023-02-27T11:53:27.222Z,5.57
2023-02-27T11:55:58.781Z,5.57
2023-02-27T11:58:33.318Z,5.56
2023-02-27T12:01:07.768Z,5.38
2023-02-27T12:03:47.787Z,5.36
2023-02-27T12:06:24.745Z,5.39
2023-02-27T12:08:59.139Z,5.44
2023-02-27T12:11:33.128Z,5.45
2023-02-27T12:14:11.116Z,5.08
2023-02-27T12:16:43.990Z,5.37
2023-02-27T12:19:20.907Z,5.35
2023-02-27T12:21:56.283Z,5.67
2023-02-27T12:24:31.643Z,5.36
2023-02-27T12:27:20.043Z,5.57
2023-02-27T12:29:56.854Z,5.59
2023-02-27T12:32:28.358Z,5.88
2023-02-27T12:35:05.495Z,5.54
2023-02-27T12:37:37.804Z,5.46
2023-02-27T12:40:06.960Z,5.55
2023-02-27T12:43:14.245Z,5.65
2023-02-27T12:46:00.231Z,5.76
2023-02-27T12:48:42.377Z,5.90
2023-02-27T12:51:29.946Z,5.97
2023-02-27T12:54:13.112Z,5.93
2023-02-27T12:56:53.154Z,5.78
2023-02-27T12:59:52.460Z,5.81
2023-02-27T13:02:49.277Z,6.16
2023-02-27T13:05:36.417Z,6.10
2023-02-27T13:08:19.264Z,6.10
2023-02-27T13:10:55.360Z,6.03
2023-02-27T13:13:32.407Z,5.86
2023-02-27T13:16:06.715Z,6.14
2023-02-27T13:18:42.923Z,5.88
2023-02-27T13:21:18.487Z,5.38
2023-02-27T13:24:00.783Z,6.29
2023-02-27T13:26:35.128Z,4.65
2023-02-27T13:29:04.365Z,5.35
2023-02-27T13:31:42.726Z,5.80
2023-02-27T13:34:20.524Z,6.07
2023-02-27T13:36:53.225Z,6.11
2023-02-27T13:39:53.005Z,5.95
2023-02-27T13:42:53.870Z,6.11
2023-02-27T13:45:47.795Z,6.01
2023-02-27T13:48:38.405Z,6.19
2023-02-27T13:51:08.960Z,6.04
2023-02-27T13:53:36.120Z,5.84
2023-02-27T13:56:21.341Z,6.00
2023-02-27T13:58:51.172Z,6.17
2023-02-27T14:01:26.776Z,6.34
2023-02-27T14:04:01.064Z,6.31
2023-02-27T14:06:29.679Z,6.56
2023-02-27T14:09:12.917Z,6.57
2023-02-27T14:11:55.044Z,6.25
2023-02-27T14:14:43.022Z,6.42
2023-02-27T14:17:12.020Z,6.28
2023-02-27T14:19:53.341Z,6.76
2023-02-27T14:23:10.108Z,6.88
2023-02-27T14:25:44.036Z,7.02
2023-02-27T14:28:23.325Z,6.88
2023-02-27T14:31:01.750Z,6.52
2023-02-27T14:33:41.029Z,5.93
2023-02-27T14:36:17.704Z,6.84
2023-02-27T14:38:45.556Z,6.70
2023-02-27T14:41:28.026Z,6.87
2023-02-27T14:43:58.200Z,7.10
2023-02-27T14:46:32.466Z,6.95
2023-02-27T14:49:03.381Z,6.59
2023-02-27T14:51:33.380Z,6.95
2023-02-27T14:54:03.783Z,6.98
2023-02-27T14:56:32.246Z,7.06
2023-02-27T14:59:04.390Z,7.07
2023-02-27T15:01:38.376Z,7.25
2023-02-27T15:04:08.499Z,7.22
2023-02-27T15:06:44.839Z,6.82
2023-02-27T15:09:23.562Z,7.01
2023-02-27T15:12:02.938Z,6.87
2023-02-27T15:14:36.306Z,6.87
2023-02-27T15:17:15.968Z,7.23
2023-02-27T15:19:47.824Z,7.32
2023-02-27T15:22:36.138Z,7.64
2023-02-27T15:25:06.504Z,7.63
2023-02-27T15:27:36.465Z,8.11
2023-02-27T15:30:04.956Z,7.36
2023-02-27T15:32:37.508Z,7.21
2023-02-27T15:35:12.723Z,7.73
2023-02-27T15:37:45.689Z,7.40
2023-02-27T15:40:21.128Z,7.36
2023-02-27T15:42:49.143Z,7.52
2023-02-27T15:45:19.512Z,7.20
2023-02-27T15:47:49.364Z,7.21
2023-02-27T15:50:27.744Z,7.34
2023-02-27T15:53:00.213Z,7.61
2023-02-27T15:55:32.292Z,7.20
2023-02-27T15:58:03.404Z,7.60
2023-02-27T16:00:35.603Z,7.65
2023-02-27T16:03:07.651Z,7.63
2023-02-27T16:05:38.563Z,7.46
2023-02-27T16:08:06.948Z,7.47
2023-02-27T16:10:40.617Z,7.83
2023-02-27T16:13:21.609Z,7.35
2023-02-27T16:15:59.390Z,7.40
2023-02-27T16:18:32.318Z,7.49
2023-02-27T16:21:11.042Z,7.37
2023-02-27T16:23:38.697Z,7.65
2023-02-27T16:26:28.808Z,7.63
2023-02-27T16:28:59.449Z,7.53
2023-02-27T16:31:30.183Z,7.60
2023-02-27T16:34:01.693Z,7.58
2023-02-27T16:36:31.286Z,7.77
2023-02-27T16:38:58.700Z,7.99
2023-02-27T16:41:27.595Z,7.98
2023-02-27T16:43:54.877Z,7.65
2023-02-27T16:46:22.384Z,8.04
2023-02-27T16:48:52.042Z,7.86
2023-02-27T16:51:23.144Z,7.92
2023-02-27T16:53:51.921Z,7.77
2023-02-27T16:56:32.244Z,7.74
2023-02-27T16:59:05.805Z,7.88
2023-02-27T17:01:34.296Z,7.87
2023-02-27T17:04:03.975Z,7.73
2023-02-27T17:06:35.541Z,8.02
2023-02-27T17:09:02.938Z,7.80
2023-02-27T17:11:30.753Z,8.07
2023-02-27T17:13:58.084Z,8.28
2023-02-27T17:16:25.762Z,8.63
2023-02-27T17:18:53.301Z,8.60
2023-02-27T17:21:20.729Z,8.60
2023-02-27T17:23:49.422Z,8.49
2023-02-27T17:26:16.723Z,8.50
2023-02-27T17:28:43.884Z,8.90
2023-02-27T17:31:11.821Z,9.02
2023-02-27T17:33:39.067Z,9.01
2023-02-27T17:36:09.263Z,9.16
2023-02-27T17:38:37.034Z,8.95
2023-02-27T17:41:09.952Z,8.70
2023-02-27T17:43:37.589Z,8.89
2023-02-27T17:46:06.949Z,9.24
2023-02-27T17:48:34.495Z,9.16
2023-02-27T17:51:05.282Z,9.10
2023-02-27T17:53:34.415Z,8.75
2023-02-27T17:56:02.273Z,9.18
2023-02-27T17:58:31.397Z,9.34
2023-02-27T18:01:04.438Z,9.25
2023-02-27T18:03:33.361Z,9.30
2023-02-27T18:06:00.593Z,9.41
2023-02-27T18:08:28.432Z,9.40
2023-02-27T18:10:55.790Z,9.78
2023-02-27T18:13:23.053Z,9.61
2023-02-27T18:15:52.476Z,9.77
2023-02-27T18:18:20.928Z,9.94
2023-02-27T18:20:48.734Z,9.56
2023-02-27T18:23:16.033Z,9.56
2023-02-27T18:25:43.357Z,9.65
2023-02-27T18:28:10.814Z,9.63
2023-02-27T18:30:39.463Z,9.85
2023-02-27T18:33:08.231Z,10.12
2023-02-27T18:35:35.408Z,9.89
2023-02-27T18:38:02.663Z,10.09
2023-02-27T18:40:30.263Z,10.28
2023-02-27T18:42:57.443Z,9.85
2023-02-27T18:45:25.463Z,10.07
2023-02-27T18:47:52.549Z,10.33
2023-02-27T18:50:21.444Z,10.45
2023-02-27T18:52:48.984Z,10.31
2023-02-27T18:55:16.422Z,10.10
2023-02-27T18:57:44.323Z,10.58
2023-02-27T19:00:13.369Z,10.64
2023-02-27T19:02:41.561Z,10.39
2023-02-27T19:05:11.593Z,10.84
2023-02-27T19:07:41.009Z,10.74
2023-02-27T19:10:10.222Z,10.54
2023-02-27T19:12:37.405Z,10.14
2023-02-27T19:15:05.374Z,10.17
2023-02-27T19:17:32.506Z,10.55
2023-02-27T19:19:59.933Z,10.31
2023-02-27T19:22:27.573Z,10.36
2023-02-27T19:24:56.285Z,10.38
2023-02-27T19:27:24.418Z,10.32
2023-02-27T19:29:51.931Z,10.36
2023-02-27T19:32:19.276Z,10.45
2023-02-27T19:34:46.492Z,10.22
2023-02-27T19:37:14.168Z,10.81
2023-02-27T19:39:41.649Z,10.26
2023-02-27T19:42:10.725Z,10.45
2023-02-27T19:44:38.255Z,10.47
2023-02-27T19:47:05.616Z,10.81
2023-02-27T19:49:32.806Z,10.53
2023-02-27T19:52:00.346Z,10.72
2023-02-27T19:54:28.204Z,10.81
2023-02-27T19:56:55.503Z,10.89
2023-02-27T19:59:24.644Z,10.84
2023-02-27T20:01:53.331Z,11.21
2023-02-27T20:04:20.615Z,11.23
2023-02-27T20:06:48.899Z,11.09
2023-02-27T20:09:19.384Z,11.49
2023-02-27T20:11:51.507Z,10.99
2023-02-27T20:14:18.838Z,11.28
2023-02-27T20:16:47.570Z,11.14
2023-02-27T20:19:17.864Z,11.08
2023-02-27T20:21:46.856Z,11.16
2023-02-27T20:24:15.806Z,10.98
2023-02-27T20:26:46.298Z,11.12
2023-02-27T20:29:17.383Z,10.82
2023-02-27T20:31:48.409Z,11.02
2023-02-27T20:34:20.071Z,10.97
2023-02-27T20:36:47.853Z,10.77
2023-02-27T20:39:15.103Z,11.13
2023-02-27T20:41:42.396Z,10.94
2023-02-27T20:44:09.804Z,10.94
2023-02-27T20:46:38.445Z,10.37
2023-02-27T20:49:08.613Z,10.89
2023-02-27T20:51:39.085Z,10.42
2023-02-27T20:54:09.071Z,9.63
2023-02-27T20:56:38.767Z,6.20
2023-02-27T20:59:08.310Z,7.22
2023-02-27T21:01:38.175Z,7.45
2023-02-27T21:04:07.215Z,7.26
2023-02-27T21:06:34.984Z,7.15
2023-02-27T21:09:06.323Z,8.55
2023-02-27T21:11:34.080Z,8.91
2023-02-27T21:14:05.360Z,9.28
2023-02-27T21:16:32.943Z,9.75
2023-02-27T21:19:00.184Z,9.88
2023-02-27T21:21:31.496Z,10.11
2023-02-27T21:24:00.038Z,9.75
2023-02-27T21:26:30.354Z,10.19
2023-02-27T21:29:00.927Z,10.11
2023-02-27T21:31:32.640Z,9.76
2023-02-27T21:34:01.810Z,10.15
2023-02-27T21:36:32.588Z,10.08
2023-02-27T21:39:02.262Z,10.17
2023-02-27T21:41:30.702Z,10.02
2023-02-27T21:43:58.708Z,10.07
2023-02-27T21:46:26.640Z,10.29
2023-02-27T21:48:54.533Z,10.31
2023-02-27T21:51:38.304Z,10.57
2023-02-27T21:54:09.928Z,10.15
2023-02-27T21:56:37.630Z,10.33
2023-02-27T21:59:05.587Z,9.92
2023-02-27T22:01:33.606Z,10.07
2023-02-27T22:04:01.472Z,10.54
2023-02-27T22:06:31.289Z,10.48
2023-02-27T22:09:01.111Z,10.17
2023-02-27T22:11:30.397Z,10.59
2023-02-27T22:13:58.086Z,10.36
2023-02-27T22:16:25.342Z,9.81
2023-02-27T22:18:52.582Z,9.99
2023-02-27T22:21:22.991Z,9.94
2023-02-27T22:23:50.569Z,10.10
2023-02-27T22:26:21.078Z,10.12
2023-02-27T22:28:51.001Z,9.98
2023-02-27T22:31:20.989Z,10.05
2023-02-27T22:33:50.864Z,10.36
2023-02-27T22:36:20.844Z,10.22
2023-02-27T22:38:48.834Z,10.03
2023-02-27T22:41:19.362Z,10.23
2023-02-27T22:43:46.942Z,10.00
2023-02-27T22:46:18.109Z,10.09
2023-02-27T22:48:45.332Z,9.94
2023-02-27T22:51:14.611Z,10.02
2023-02-27T22:53:43.264Z,9.69
2023-02-27T22:56:12.878Z,10.41
2023-02-27T22:58:42.043Z,9.86
2023-02-27T23:01:10.137Z,9.98
2023-02-27T23:03:40.812Z,9.91
2023-02-27T23:06:11.361Z,9.76
2023-02-27T23:08:39.081Z,9.57
2023-02-27T23:11:06.857Z,9.98
2023-02-27T23:13:34.217Z,9.45
2023-02-27T23:16:02.538Z,10.09
2023-02-27T23:18:29.857Z,10.06
2023-02-27T23:21:03.808Z,10.28
2023-02-27T23:23:31.098Z,10.12
2023-02-27T23:26:01.703Z,9.93
2023-02-27T23:28:30.008Z,10.18
2023-02-27T23:30:58.112Z,10.03
2023-02-27T23:33:25.851Z,10.27
2023-02-27T23:35:53.316Z,9.99
2023-02-27T23:38:22.555Z,10.24
2023-02-27T23:40:50.238Z,10.20
2023-02-27T23:43:17.498Z,9.84
2023-02-27T23:45:44.691Z,10.14
2023-02-27T23:48:11.814Z,10.31
2023-02-27T23:50:41.379Z,10.22
2023-02-27T23:53:08.714Z,10.38
2023-02-27T23:55:38.358Z,10.33
2023-02-27T23:58:08.717Z,10.20
